Station info - map view · info · telemetry · weather · raw · status · beacons · messages · bulletins · browse · moving · my account
Callsign, ship name or locator: Clear       
It is possible to search using wildcards (*?) after a prefix. Example: OH*
APRS station TA1ISO-9 - show graphs
Map loading...
Comment: Op:Selim.73...
Mic-E message: Off duty
Location: 41°01.40' N 28°58.65' E - locator KN41LA75HO - show map - static map
1.6 miles Northeast bearing 66° from İstanbul, Istanbul, Turkey [?]
4.3 miles Northeast bearing 62° from Zeytinburnu, Istanbul, Turkey
57.6 miles North bearing 356° from Bursa, Bursa, Turkey
Last position: 2017-04-23 09:26:29 EDT (4d 9h8m ago)
2017-04-23 16:26:29 +03 local time at İstanbul, Turkey [?]
Altitude: -16 ft
Course: 134°
Device: Kenwood: TM-D710 (rig)
Last path: TA1ISO-9>TQPQ40 via YM2KW*,WIDE2-1,qAR,TA1FL-2 (good)
Positions stored: 23950
Packet rate: 60 seconds between packets on average during 601 seconds.
Other SSIDs: TA1ISO-10 TA1ISO-5 TA1ISO-7
Stations near current position of TA1ISO-9 - show more
callsign distance last heard - EDT      callsign distance last heard - EDT
271010294 TR315.7 yards 138°2017-04-06 08:42:06 CEVKOR 1481.9 yards 208°2017-04-07 11:01:18
M.Y FREEDOM C485.2 yards 213°2017-04-08 11:52:44 UCARSU486.5 yards 209°2017-04-08 16:55:26
KARDELEN-S500.6 yards 139°2017-04-08 14:04:03 BUYUK YESILADA518.1 yards 124°2017-04-08 11:11:40
SEYR-U SEFA0.3 miles 152°2017-04-08 09:24:24 271040235 TR0.3 miles 229°2017-04-08 11:02:38
EMIN INANDI0.3 miles 229°2017-04-08 11:16:40 NIS 20.3 miles 230°2017-04-08 16:16:21
YUNUS TUR 30.3 miles 231°2017-04-08 12:29:49 271010682 TR0.3 miles 230°2017-04-08 10:56:37
SENOL-II0.3 miles 235°2017-04-08 12:04:46 SIMAL YILDIZI S0.4 miles 159°2017-04-08 08:50:19
TURYOL-40.4 miles 234°2017-04-08 13:37:59 GRAND BOAT LINE0.4 miles 253°2017-04-08 11:10:39
M\F SUHULET0.5 miles 167°2017-04-08 20:58:24 FEYIZOGLU-20.5 miles 108°2017-04-08 09:40:26
MUZAFFER KAPTAN0.5 miles 229°2017-04-08 11:35:42 ULUDAG0.5 miles 113°2017-04-08 16:09:20
Stations which heard TA1ISO-9 directly on radio –
callsign pkts first heard - EDT last heard longest (tx => rx) longest at - EDT
YM2UDM 29 2017-04-01 01:35:25 2017-04-23 09:19:36 KN41JA > KN41MB 14.2 miles 78° 2017-04-08 14:54:33
YM3BUR 53 2017-04-01 01:25:52 2017-04-21 10:16:51 KN41ME > KN40NC 76.0 miles 178° 2017-04-21 00:42:18
YM2IMT 135 2017-04-01 01:56:18 2017-04-21 09:20:26 KN41JA > KN50BP 73.4 miles 111° 2017-04-12 16:07:57
YM2BOL 116 2017-04-01 04:37:39 2017-04-02 08:14:19 KN50MU > KN50PO 23.3 miles 135° 2017-04-01 04:37:39
TA1DX-3 16 2017-04-12 11:33:34 2017-04-19 13:42:34 KN41JB > KN40GX 16.1 miles 252° 2017-04-19 11:58:43
YM1IST 6 2017-04-01 01:34:55 2017-04-21 09:50:52 KN41ME > KN41MB 6.6 miles 200° 2017-04-21 00:33:02
YM2KDU 65 2017-04-01 02:55:30 2017-04-21 00:37:12 KN41JA > KN50LQ 116.8 miles 102° 2017-04-12 11:28:18
YM1KD-1 28 2017-04-01 02:16:39 2017-04-23 09:25:26 KN41ME > KN41KA 14.6 miles 212° 2017-04-21 09:22:41
YM2KW 72 2017-04-01 01:25:10 2017-04-23 09:26:29 KN40XR > KN40OW 43.2 miles 291° 2017-04-02 10:49:43
TA1CR 14 2017-04-01 01:35:23 2017-04-02 14:13:30 KN40NX > KN41MD 10.8 miles 330° 2017-04-01 01:54:15
TA1FL-2 65 2017-04-02 13:08:20 2017-04-23 09:16:28 KN40NX > KN40KX 12.4 miles 272° 2017-04-02 13:08:20
TA2IKY 4 2017-04-21 00:36:37 2017-04-21 09:23:47 KN41ME > KN40PP 39.2 miles 161° 2017-04-21 00:37:09
TA1AST 90 2017-04-01 01:25:51 2017-04-21 10:13:20 KN40OX > KN41MB 12.5 miles 298° 2017-04-01 01:58:16
TA2AOB-10 11 2017-04-01 03:16:01 2017-04-02 09:33:30 KN50KT > KN50ES 23.8 miles 265° 2017-04-02 09:01:01
YM2KQ-1 20 2017-04-01 03:27:32 2017-04-02 12:40:01 KN50DQ > KN40VT 25.1 miles 290° 2017-04-01 04:30:21
TA1FL-12 13 2017-04-01 02:04:50 2017-04-02 12:33:02 KN40RT > KN40PV 10.3 miles 313° 2017-04-01 02:47:07
YM2KAR 4 2017-04-02 04:01:13 2017-04-02 09:59:58 KN50TQ > KN51IB 56.0 miles 298° 2017-04-02 04:01:13
M6TAA 1 2017-04-01 01:30:47 2017-04-01 01:30:47 KN41KB > KN40NX 11.0 miles 109° 2017-04-01 01:30:47

Only position packets which were originated by the station are shown here. The range statistics show some extra long hops, because some digipeaters do not correctly add themselves to the digipeater path. Please check the raw packets.
About this site
This page shows real-time information collected from the Automatic Position Reporting System Internet network (APRS-IS). APRS is used by amateur (ham) radio operators to transmit real-time position information, weather data, telemetry and messages over the radio. A vehicle equipped with a GPS receiver, a VHF transmitter or HF transceiver and a small computer device called a tracker transmits it's location, speed and course in a small data packet, which is then received by a nearby iGate receiving site which forwards the packet on the Internet. Systems connected to the Internet can send information on the APRS-IS without a radio transmitter, or collect and display information transmitted anywhere in the world.
FAQ · Blog · Discussion group · Linking to aprs.fi · AIS sites · Service status · Database statistics · Advertising on aprs.fi · Technical details · API · Change log · Planned changes · Credits and thanks · Terms Of Service · iPhone/iPad APRS